Latest Weather Observations for Cape Flattery

IDQ60801

Issued at 2:33 pm EST Saturday 25 June 2016 (issued every 30 minutes, with the page automatically refreshed every 10 minutes)

About weather observations | Map of weather stations | Latest weather observations for QLD | Other Formats
Station Details ID: 031213 Name: CAPE FLATTERY Lat: -14.97 Lon: 145.31 Height: 18.5 m
Data from the previous 72 hours. | See also: Recent months at Cape Flattery
Date/Time
EST
Temp
°C
App
Temp
°C
Dew
Point
°C
Rel
Hum
%
Delta-T
°C
Wind Press
QNH
hPa
Press
MSL
hPa
Rain since
9am
mm
Dir  Spd
km/h
Gust
km/h
Spd
kts
Gust
kts
25/02:30pm 28.0 26.9 21.8 69 4.2 SE 30 41 16 22 1013.3 1013.2 0.0
25/02:00pm 28.4 27.4 21.9 68 4.4 SE 30 43 16 23 1013.6 1013.5 0.0
25/01:30pm 28.2 26.7 21.7 68 4.4 SE 32 41 17 22 1013.8 1013.7 0.0
25/01:00pm 28.3 27.0 21.3 65 4.7 ESE 30 43 16 23 1014.2 1014.1 0.0
25/12:30pm 28.6 27.3 22.1 68 4.4 ESE 32 43 17 23 1014.6 1014.5 0.0
25/12:00pm 28.3 27.1 21.6 67 4.5 ESE 30 46 16 25 1014.8 1014.7 0.0
25/11:30am 28.4 28.0 22.4 70 4.1 ESE 28 43 15 23 1015.1 1015.0 0.0
25/11:00am 28.1 27.5 22.6 72 3.7 ESE 30 39 16 21 1015.6 1015.5 0.0
25/10:30am 27.7 26.7 22.0 71 3.8 ESE 30 39 16 21 1015.7 1015.6 0.0
25/10:00am 27.7 28.2 22.6 74 3.5 SE 24 35 13 19 1015.8 1015.7 0.0
25/09:30am 27.4 27.8 22.4 74 3.4 SE 24 39 13 21 1015.6 1015.5 0.0
25/09:00am 27.2 27.6 22.4 75 3.2 ESE 24 32 13 17 1015.3 1015.2 0.2
25/08:30am 26.6 26.9 22.2 77 3.0 SE 24 35 13 19 1014.9 1014.8 0.2
25/08:00am 26.3 26.2 22.2 78 2.8 SE 26 35 14 19 1014.5 1014.4 0.2
25/07:30am 25.4 26.7 22.7 85 1.8 SE 20 28 11 15 1014.2 1014.1 0.2
25/07:00am 25.0 26.1 22.3 85 1.8 SE 20 28 11 15 1013.9 1013.8 0.2
25/06:30am 24.8 26.2 22.5 87 1.5 ESE 19 24 10 13 1013.5 1013.4 0.2
25/06:00am 24.8 26.2 22.5 87 1.5 ESE 19 28 10 15 1013.4 1013.3 0.2
25/05:30am 24.8 26.6 22.5 87 1.5 ESE 17 26 9 14 1013.3 1013.2 0.2
25/05:00am 24.7 26.5 22.6 88 1.4 ESE 17 26 9 14 1013.1 1013.0 0.2
25/04:30am 25.0 26.3 22.7 87 1.6 ESE 20 28 11 15 1013.0 1012.9 0.2
25/04:00am 24.9 26.5 22.8 88 1.4 ESE 19 24 10 13 1012.7 1012.6 0.2
25/03:30am 25.1 26.7 22.8 87 1.6 ESE 19 26 10 14 1012.8 1012.7 0.2
25/03:00am 24.9 27.4 23.1 90 1.2 SE 15 20 8 11 1013.0 1012.9 0.2
25/02:30am 24.9 26.6 23.0 89 1.3 SE 19 24 10 13 1013.0 1012.9 0.2
25/02:00am 24.9 27.0 23.1 90 1.2 ESE 17 24 9 13 1013.2 1013.1 0.2
25/01:30am 24.9 26.6 23.0 89 1.3 ESE 19 26 10 14 1013.5 1013.4 0.2
25/01:00am 24.9 26.9 23.0 89 1.3 ESE 17 24 9 13 1013.8 1013.7 0.2
25/12:30am 24.8 26.8 23.0 90 1.2 ESE 17 24 9 13 1013.9 1013.8 0.2
25/12:00am 24.8 27.2 23.0 90 1.2 ESE 15 22 8 12 1013.9 1013.8 0.2
 
Date/Time
EST
Temp
°C
App
Temp
°C
Dew
Point
°C
Rel
Hum
%
Delta-T
°C
Wind Press
QNH
hPa
Press
MSL
hPa
Rain since
9am
mm
Dir  Spd
km/h
Gust
km/h
Spd
kts
Gust
kts
24/11:30pm 24.9 26.9 23.0 89 1.3 ESE 17 24 9 13 1013.9 1013.8 0.2
24/11:00pm 25.2 26.8 23.3 89 1.3 SE 20 26 11 14 1014.2 1014.1 0.2
24/10:30pm 25.1 26.9 23.3 90 1.2 SE 19 24 10 13 1014.3 1014.2 0.2
24/10:00pm 24.8 27.1 23.4 92 1.0 SE 17 20 9 11 1014.4 1014.3 0.2
24/09:30pm 24.6 27.6 23.4 93 0.8 ESE 13 15 7 8 1014.4 1014.3 0.2
24/09:00pm 24.9 28.0 23.5 92 1.0 SE 13 17 7 9 1014.3 1014.2 0.2
24/08:30pm 24.8 27.7 23.8 94 0.7 SE 15 19 8 10 1014.0 1013.9 0.2
24/08:00pm 24.3 27.7 23.3 94 0.7 SE 11 13 6 7 1013.7 1013.6 0.2
24/07:30pm 24.0 27.5 22.8 93 0.8 ESE 9 11 5 6 1013.4 1013.3 0.2
24/07:00pm 24.4 27.7 23.2 93 0.8 ESE 11 13 6 7 1013.1 1013.0 0.2
24/06:30pm 24.9 28.6 23.3 91 1.1 ESE 9 11 5 6 1013.0 1012.9 0.2
24/06:00pm 25.3 28.7 23.4 89 1.3 SE 11 15 6 8 1012.8 1012.7 0.2
24/05:30pm 25.8 29.2 23.3 86 1.7 ESE 11 15 6 8 1012.6 1012.5 0.2
24/05:00pm 26.6 28.9 23.5 83 2.1 SE 17 24 9 13 1012.4 1012.3 0.2
24/04:30pm 27.0 28.6 23.3 80 2.5 ESE 20 26 11 14 1012.4 1012.3 0.2
24/04:00pm 27.5 29.3 23.5 79 2.7 SE 20 26 11 14 1012.3 1012.2 0.2
24/03:30pm 26.8 28.8 24.5 87 1.6 SE 22 30 12 16 1012.5 1012.4 0.2
24/03:00pm 28.0 30.7 25.0 84 2.1 SSE 20 26 11 14 1012.5 1012.4 0.2
24/02:30pm 27.7 29.5 24.3 82 2.4 SSE 22 28 12 15 1012.6 1012.5 0.0
24/02:00pm 27.9 29.6 24.7 83 2.2 SSE 24 32 13 17 1012.7 1012.6 0.0
24/01:30pm 28.2 30.5 25.6 86 1.8 SSE 24 33 13 18 1013.0 1012.9 0.0
24/01:00pm 26.6 27.9 24.6 89 1.4 SSE 26 33 14 18 1013.4 1013.3 0.0
24/12:30pm 25.9 28.4 24.5 92 1.0 SSE 19 28 10 15 1013.7 1013.6 0.0
24/12:00pm 27.0 28.8 24.3 85 1.9 SSE 22 30 12 16 1014.0 1013.9 0.0
24/11:30am 27.3 29.3 24.0 82 2.3 SSE 20 28 11 15 1014.2 1014.1 0.0
24/11:00am 28.0 30.4 24.6 82 2.4 SSE 20 28 11 15 1014.4 1014.3 0.0
24/10:30am 27.5 29.7 24.9 86 1.8 SSE 22 26 12 14 1014.3 1014.2 0.0
24/10:00am 27.1 29.6 25.3 90 1.3 SSE 22 28 12 15 1014.3 1014.2 0.0
24/09:30am 26.2 29.0 25.0 93 0.8 SE 19 24 10 13 1014.3 1014.2 0.0
24/09:00am 26.0 29.4 24.6 92 1.0 SE 15 24 8 13 1014.3 1014.2 4.6
24/08:30am 24.6 26.7 23.7 95 0.6 ESE 19 26 10 14 1014.2 1014.1 4.6
24/08:00am 24.6 27.4 24.3 98 0.2 ESE 17 22 9 12 1013.9 1013.8 4.6
24/07:30am 24.1 26.2 23.8 98 0.2 ESE 19 28 10 15 1013.6 1013.5 4.6
24/07:00am 24.1 26.2 23.8 98 0.2 ESE 19 26 10 14 1013.2 1013.1 4.4
24/06:30am 24.6 27.4 24.3 98 0.2 S 17 22 9 12 1012.8 1012.7 3.2
24/06:00am 24.7 27.4 24.2 97 0.3 SSE 17 20 9 11 1012.4 1012.3 3.0
24/05:30am 24.6 27.7 24.1 97 0.3 SSE 15 17 8 9 1012.1 1012.0 3.0
24/05:00am 24.4 26.4 23.9 97 0.3 SE 20 33 11 18 1012.0 1011.9 3.0
24/04:30am 24.3 26.4 23.8 97 0.3 SE 19 28 10 15 1011.8 1011.7 3.0
24/04:00am 24.6 27.4 24.3 98 0.2 SE 17 19 9 10 1011.9 1011.8 3.0
24/03:30am 24.4 27.3 23.9 97 0.3 ESE 15 20 8 11 1012.0 1011.9 3.0
24/03:00am 24.2 26.8 23.9 98 0.2 SE 17 24 9 13 1011.9 1011.8 3.0
24/02:30am 24.2 26.8 23.9 98 0.2 SE 17 26 9 14 1012.1 1012.0 3.0
24/02:00am 24.1 25.3 23.8 98 0.2 SE 24 32 13 17 1012.2 1012.1 3.0
24/01:30am 24.5 26.9 24.2 98 0.2 SE 19 28 10 15 1012.4 1012.3 2.8
24/01:00am 24.3 26.9 24.0 98 0.2 ESE 17 26 9 14 1012.7 1012.6 2.6
24/12:30am 24.9 27.3 24.2 96 0.5 SE 19 24 10 13 1012.8 1012.7 1.6
24/12:00am 25.1 28.0 24.4 96 0.5 SE 17 20 9 11 1012.9 1012.8 1.6
 
Date/Time
EST
Temp
°C
App
Temp
°C
Dew
Point
°C
Rel
Hum
%
Delta-T
°C
Wind Press
QNH
hPa
Press
MSL
hPa
Rain since
9am
mm
Dir  Spd
km/h
Gust
km/h
Spd
kts
Gust
kts
23/11:30pm 24.8 27.5 24.1 96 0.5 SE 17 20 9 11 1013.0 1012.9 1.6
23/11:00pm 24.8 27.2 24.3 97 0.3 ESE 19 26 10 14 1013.1 1013.0 1.6
23/10:30pm 25.2 27.5 24.5 96 0.5 SE 20 28 11 15 1013.1 1013.0 1.6
23/10:00pm 25.2 27.9 24.7 97 0.3 S 19 24 10 13 1013.0 1012.9 1.4
23/09:30pm 25.1 27.5 24.6 97 0.3 SSE 20 24 11 13 1012.9 1012.8 1.4
23/09:00pm 25.1 27.0 24.4 96 0.5 SSE 22 30 12 16 1012.7 1012.6 1.4
23/08:30pm 25.1 26.9 24.2 95 0.6 SSE 22 28 12 15 1012.6 1012.5 1.4
23/08:00pm 25.1 27.3 24.2 95 0.6 SSE 20 26 11 14 1012.5 1012.4 1.4
23/07:30pm 25.2 27.4 24.2 94 0.7 SSE 20 28 11 15 1012.3 1012.2 1.4
23/07:00pm 25.1 27.2 24.1 94 0.7 SSE 20 26 11 14 1012.0 1011.9 1.4
23/06:30pm 25.3 27.2 24.4 95 0.6 SSE 22 32 12 17 1011.7 1011.6 1.4
23/06:00pm 25.2 27.6 24.3 95 0.6 SSE 19 24 10 13 1011.6 1011.5 1.4
23/05:30pm 25.0 26.7 24.0 94 0.7 SSE 22 30 12 16 1011.3 1011.2 1.4
23/05:00pm 25.5 27.8 24.5 94 0.7 SSE 20 28 11 15 1011.0 1010.9 1.4
23/04:30pm 25.3 26.4 24.3 94 0.7 SSE 26 32 14 17 1010.8 1010.7 1.4
23/04:00pm 25.7 27.5 24.8 95 0.6 SSE 24 32 13 17 1010.8 1010.7 1.4
23/03:30pm 26.8 27.4 24.1 85 1.9 SSE 28 35 15 19 1010.6 1010.5 0.4
23/03:00pm 27.3 28.4 24.4 84 2.0 SSE 26 33 14 18 1010.7 1010.6 0.4
23/02:30pm 27.4 27.6 24.1 82 2.3 SSE 30 37 16 20 1010.7 1010.6 0.4
23/02:00pm 28.1 29.1 24.7 82 2.4 SSE 28 37 15 20 1011.0 1010.9 0.4
23/01:30pm 26.9 26.9 23.8 83 2.1 SSE 30 37 16 20 1011.3 1011.2 0.4
23/01:00pm 28.0 29.0 24.2 80 2.6 SSE 26 35 14 19 1011.8 1011.7 0.4
23/12:30pm 28.0 28.8 24.4 81 2.5 SSE 28 35 15 19 1012.2 1012.1 0.4
23/12:00pm 28.4 29.7 25.2 83 2.2 SSE 28 37 15 20 1012.4 1012.3 0.4
23/11:30am 27.0 27.1 24.5 86 1.7 SSE 32 37 17 20 1012.7 1012.6 0.4
23/11:00am 27.1 29.4 25.7 92 1.0 SE 24 30 13 16 1012.7 1012.6 0.4
23/10:30am 26.6 29.3 25.6 94 0.7 SSE 22 28 12 15 1013.0 1012.9 0.4
23/10:00am 25.8 29.2 25.3 97 0.3 SE 17 22 9 12 1013.2 1013.1 0.4
23/09:30am 25.9 28.5 24.9 94 0.7 SSE 20 26 11 14 1013.3 1013.2 0.0
23/09:00am 26.0 28.4 24.6 92 1.0 SSE 20 26 11 14 1013.3 1013.2 0.8
23/08:30am 26.4 28.7 24.4 89 1.4 SE 20 28 11 15 1012.9 1012.8 0.8
23/08:00am 25.9 28.2 24.5 92 1.0 SE 20 26 11 14 1012.7 1012.6 0.8
23/07:30am 25.5 27.8 24.5 94 0.7 SE 20 26 11 14 1012.4 1012.3 0.8
23/07:00am 25.0 26.8 23.6 92 1.0 SE 20 28 11 15 1012.1 1012.0 0.8
23/06:30am 24.9 26.2 23.3 91 1.1 SE 22 30 12 16 1011.8 1011.7 0.8
23/06:00am 24.9 26.3 23.5 92 1.0 SE 22 32 12 17 1011.7 1011.6 0.8
23/05:30am 24.9 26.9 23.9 94 0.7 SE 20 28 11 15 1011.7 1011.6 0.8
23/05:00am 24.8 26.8 23.9 95 0.6 SE 20 26 11 14 1011.6 1011.5 0.8
23/04:30am 24.8 26.7 23.8 94 0.7 SE 20 28 11 15 1011.6 1011.5 0.8
23/04:00am 25.1 27.3 24.2 95 0.6 SE 20 26 11 14 1011.6 1011.5 0.8
23/03:30am 24.8 26.9 24.1 96 0.5 SE 20 24 11 13 1011.7 1011.6 0.8
23/03:00am 24.5 26.7 24.0 97 0.3 SE 19 22 10 12 1011.9 1011.8 0.8
23/02:30am 24.2 26.0 23.5 96 0.5 SSE 20 26 11 14 1012.0 1011.9 0.8
23/02:00am 24.3 25.5 23.8 97 0.3 SE 24 32 13 17 1012.4 1012.3 0.8
23/01:30am 24.1 24.5 23.8 98 0.2 SE 28 35 15 19 1012.5 1012.4 0.8
23/01:00am 24.1 25.3 23.8 98 0.2 SSE 24 32 13 17 1012.7 1012.6 0.8
23/12:30am 24.6 26.6 23.9 96 0.5 SE 20 30 11 16 1012.8 1012.7 0.6
23/12:00am 24.8 27.0 24.3 97 0.3 SE 20 32 11 17 1013.1 1013.0 0.4
 
Date/Time
EST
Temp
°C
App
Temp
°C
Dew
Point
°C
Rel
Hum
%
Delta-T
°C
Wind Press
QNH
hPa
Press
MSL
hPa
Rain since
9am
mm
Dir  Spd
km/h
Gust
km/h
Spd
kts
Gust
kts
22/11:30pm 24.7 26.5 24.2 97 0.3 SE 22 30 12 16 1013.1 1013.0 0.4
22/11:00pm 24.7 26.0 24.0 96 0.5 SE 24 33 13 18 1013.4 1013.3 0.2
22/10:30pm 25.1 25.6 23.9 93 0.8 SSE 28 33 15 18 1013.5 1013.4 0.0
22/10:00pm 25.0 25.8 23.8 93 0.8 SSE 26 35 14 19 1013.4 1013.3 0.0
22/09:30pm 25.3 25.5 23.5 90 1.2 SSE 28 37 15 20 1013.3 1013.2 0.0
22/09:00pm 25.1 25.7 23.5 91 1.1 SSE 26 33 14 18 1013.2 1013.1 0.0
22/08:30pm 24.9 25.4 23.3 91 1.1 SSE 26 33 14 18 1012.9 1012.8 0.0
22/08:00pm 24.8 25.4 23.4 92 1.0 SSE 26 35 14 19 1012.7 1012.6 0.0
22/07:30pm 25.3 25.7 23.2 88 1.4 SSE 26 37 14 20 1012.1 1012.0 0.0
22/07:00pm 24.9 25.3 23.1 90 1.2 SSE 26 33 14 18 1011.9 1011.8 0.0
22/06:30pm 25.3 25.3 23.0 87 1.6 SSE 28 35 15 19 1011.7 1011.6 0.0
22/06:00pm 25.2 25.2 23.1 88 1.4 SSE 28 33 15 18 1011.6 1011.5 0.0
22/05:30pm 25.4 25.5 23.3 88 1.4 SSE 28 35 15 19 1011.3 1011.2 0.0
22/05:00pm 25.7 25.8 23.2 86 1.7 SSE 28 35 15 19 1011.1 1011.0 0.0
22/04:30pm 25.9 26.0 23.2 85 1.8 SSE 28 37 15 20 1011.0 1010.9 0.0
22/04:00pm 26.1 26.3 23.4 85 1.8 SSE 28 35 15 19 1010.9 1010.8 0.0
22/03:30pm 26.2 25.4 23.1 83 2.1 SSE 32 39 17 21 1010.7 1010.6 0.0
22/03:00pm 27.4 27.1 23.8 81 2.5 SSE 32 41 17 22 1010.8 1010.7 0.0

Other Formats:

Comma delimited format used in spreadsheet applications
http://www.bom.gov.au/fwo/IDQ60801/IDQ60801.94188.axf

JavaScript Object Notation format (JSON) in row-major order
http://www.bom.gov.au/fwo/IDQ60801/IDQ60801.94188.json